Time;durP1;ratioP1;P1;durP2;ratioP2;P2;SDS_P1;SDS_P2;PMS_P1;PMS_P2;Temp;Humidity;BMP_temperature;BMP_pressure;BME280_temperature;BME280_humidity;BME280_pressure;Samples;Min_cycle;Max_cycle;Signal;HPM_P1;HPM_P2
2021/05/07 00:01:07;;;;;;;5.60;3.80;;;;;;;6.80;74.24;99522.69;104332;1104;77303;-68
2021/05/07 00:03:12;;;;;;;6.40;4.60;;;;;;;6.80;74.84;99525.36;104360;1104;78128;-66
2021/05/07 00:05:20;;;;;;;11.30;7.40;;;;;;;6.73;74.74;99537.84;104339;1104;77591;-66
2021/05/07 00:07:25;;;;;;;7.50;4.90;;;;;;;6.72;74.81;99541.57;104316;1104;79422;-66
2021/05/07 00:09:31;;;;;;;5.30;4.10;;;;;;;6.74;75.00;99538.69;104332;1104;78793;-66
2021/05/07 00:11:36;;;;;;;4.30;3.40;;;;;;;6.78;75.10;99531.94;104336;1104;77242;-65
2021/05/07 00:13:41;;;;;;;6.00;3.80;;;;;;;6.83;75.01;99525.00;104359;1104;78491;-66
2021/05/07 00:15:47;;;;;;;7.40;5.00;;;;;;;6.86;74.95;99521.10;104332;1098;78410;-68
2021/05/07 00:17:54;;;;;;;6.60;5.20;;;;;;;6.84;75.12;99520.47;104304;1104;77908;-67
2021/05/07 00:20:04;;;;;;;8.10;5.50;;;;;;;6.83;75.20;99516.10;104361;1105;78464;-67
2021/05/07 00:22:12;;;;;;;8.80;5.70;;;;;;;6.81;75.21;99508.22;104335;1104;77120;-68
2021/05/07 00:24:17;;;;;;;8.50;5.40;;;;;;;6.85;75.35;99514.89;104315;1104;79181;-68
2021/05/07 00:26:22;;;;;;;8.30;4.90;;;;;;;6.91;75.26;99518.69;104376;1104;77601;-68
2021/05/07 00:28:28;;;;;;;11.10;6.40;;;;;;;6.85;75.58;99512.21;104323;1104;78512;-68
2021/05/07 00:30:34;;;;;;;17.30;10.40;;;;;;;6.87;75.53;99515.53;104345;1104;77893;-68
2021/05/07 00:32:39;;;;;;;15.20;10.00;;;;;;;6.81;75.63;99513.59;104363;1104;77165;-68
2021/05/07 00:34:44;;;;;;;15.90;8.80;;;;;;;6.87;75.39;99512.01;104318;1104;78696;-67
2021/05/07 00:36:50;;;;;;;11.60;7.50;;;;;;;6.93;75.25;99505.89;104341;1098;78275;-66
2021/05/07 00:38:55;;;;;;;12.20;8.10;;;;;;;6.91;75.37;99502.58;104315;1104;78985;-67
2021/05/07 00:41:00;;;;;;;11.70;7.60;;;;;;;6.91;75.39;99497.20;104347;1104;77548;-66
2021/05/07 00:43:05;;;;;;;10.10;7.50;;;;;;;6.91;75.46;99491.84;104331;1099;79041;-66
2021/05/07 00:45:16;;;;;;;10.00;7.00;;;;;;;6.95;75.23;99491.27;104314;1104;77208;-67
2021/05/07 00:47:21;;;;;;;9.10;6.80;;;;;;;6.93;75.48;99490.63;104298;1104;78711;-67
2021/05/07 00:49:26;;;;;;;7.10;5.80;;;;;;;6.88;75.58;99492.20;104311;1104;77909;-66
2021/05/07 00:51:31;;;;;;;8.00;5.70;;;;;;;6.88;75.80;99494.89;104330;1104;77912;-66
2021/05/07 00:53:36;;;;;;;9.10;5.60;;;;;;;6.86;76.02;99489.73;104334;1098;77216;-66
2021/05/07 00:55:42;;;;;;;17.60;9.00;;;;;;;6.86;76.21;99483.52;104311;1104;78001;-67
2021/05/07 00:57:48;;;;;;;11.30;8.10;;;;;;;6.92;76.21;99485.46;104321;1104;78196;-67
2021/05/07 00:59:53;;;;;;;12.80;7.40;;;;;;;6.91;76.16;99475.73;104361;1098;79578;-66
2021/05/07 01:01:58;;;;;;;10.60;6.90;;;;;;;6.97;76.21;99480.35;104311;1104;78798;-67
2021/05/07 01:04:05;;;;;;;10.00;7.60;;;;;;;7.05;75.97;99475.70;104355;1104;79659;-66
2021/05/07 01:06:10;;;;;;;8.10;6.40;;;;;;;7.08;76.06;99475.33;104345;1104;78787;-67
2021/05/07 01:08:18;;;;;;;8.60;6.40;;;;;;;7.12;75.82;99478.45;104319;1098;78511;-67
2021/05/07 01:10:24;;;;;;;8.80;5.90;;;;;;;7.13;76.17;99470.22;104276;1104;78593;-66
2021/05/07 01:12:31;;;;;;;8.50;5.50;;;;;;;7.08;75.98;99472.64;104310;1104;78551;-67
2021/05/07 01:14:36;;;;;;;8.30;6.10;;;;;;;7.11;76.34;99466.06;104288;1104;78589;-66
2021/05/07 01:16:41;;;;;;;8.10;6.30;;;;;;;7.10;76.35;99470.59;104316;1104;78068;-66
2021/05/07 01:18:46;;;;;;;9.40;6.60;;;;;;;7.09;76.28;99468.08;104259;1098;79538;-67
2021/05/07 01:20:51;;;;;;;9.50;6.00;;;;;;;7.11;76.24;99466.06;104355;1099;78540;-68
2021/05/07 01:22:59;;;;;;;8.60;7.00;;;;;;;7.12;76.29;99470.39;104266;1104;78652;-66
2021/05/07 01:25:10;;;;;;;8.10;6.40;;;;;;;7.10;76.33;99467.91;104245;1104;78505;-66
2021/05/07 01:27:15;;;;;;;10.70;7.30;;;;;;;7.17;76.45;99461.78;104343;1098;77833;-66
2021/05/07 01:29:20;;;;;;;10.80;7.20;;;;;;;7.16;76.42;99460.11;104271;1104;78910;-66
2021/05/07 01:31:25;;;;;;;10.30;7.00;;;;;;;7.18;76.39;99466.95;104266;1104;77124;-66
2021/05/07 01:33:31;;;;;;;10.60;7.90;;;;;;;7.18;76.63;99458.05;104307;1104;77450;-67
2021/05/07 01:35:37;;;;;;;9.30;7.10;;;;;;;7.15;76.46;99456.58;104307;1104;77808;-66
2021/05/07 01:37:45;;;;;;;10.80;7.50;;;;;;;7.14;76.75;99449.57;104249;1104;77724;-66
2021/05/07 01:39:51;;;;;;;9.20;7.90;;;;;;;7.18;76.78;99458.89;104300;1104;78291;-66
2021/05/07 01:41:56;;;;;;;10.80;7.90;;;;;;;7.22;76.84;99462.03;104318;1104;78852;-66
2021/05/07 01:44:01;;;;;;;9.20;7.50;;;;;;;7.20;76.72;99451.47;104341;1104;78490;-66
2021/05/07 01:46:06;;;;;;;12.30;7.90;;;;;;;7.23;76.65;99447.56;104317;1100;78416;-65
2021/05/07 01:48:13;;;;;;;12.50;8.00;;;;;;;7.26;76.68;99453.39;104266;1104;78235;-66
2021/05/07 01:50:21;;;;;;;9.90;7.70;;;;;;;7.29;76.91;99450.33;104338;1104;79226;-65
2021/05/07 01:52:27;;;;;;;10.90;7.80;;;;;;;7.32;76.79;99444.58;104359;1104;78001;-65
2021/05/07 01:54:32;;;;;;;12.90;8.50;;;;;;;7.33;76.85;99443.56;104325;1098;78212;-66
2021/05/07 01:56:37;;;;;;;10.50;8.50;;;;;;;7.31;76.81;99445.59;104324;1104;77753;-66
2021/05/07 01:58:42;;;;;;;11.50;8.40;;;;;;;7.31;76.73;99445.59;104280;1104;78438;-68
2021/05/07 02:00:47;;;;;;;11.80;9.60;;;;;;;7.37;76.71;99444.83;104327;1104;78292;-69
2021/05/07 02:02:53;;;;;;;8.70;7.80;;;;;;;7.41;76.92;99439.91;104341;1098;78580;-65
2021/05/07 02:04:58;;;;;;;12.10;8.50;;;;;;;7.39;76.74;99436.59;104303;1098;79095;-65
2021/05/07 02:07:03;;;;;;;12.10;8.50;;;;;;;7.44;76.80;99429.62;104357;1098;77341;-66
2021/05/07 02:09:09;;;;;;;12.80;10.00;;;;;;;7.45;76.88;99430.42;104307;1104;78780;-68
2021/05/07 02:11:14;;;;;;;12.60;10.50;;;;;;;7.48;76.68;99424.67;104330;1104;79450;-69
2021/05/07 02:13:19;;;;;;;13.30;9.90;;;;;;;7.47;76.85;99423.83;104320;1098;78123;-70
2021/05/07 02:15:26;;;;;;;12.90;9.60;;;;;;;7.52;76.96;99420.58;104296;1104;79152;-69
2021/05/07 02:17:31;;;;;;;12.30;9.90;;;;;;;7.59;76.67;99411.55;104335;1099;76795;-68
2021/05/07 02:19:36;;;;;;;12.00;10.00;;;;;;;7.57;76.87;99410.91;104301;1104;78021;-69
2021/05/07 02:21:41;;;;;;;12.40;9.40;;;;;;;7.58;76.85;99415.25;104328;1104;78972;-69
2021/05/07 02:23:46;;;;;;;17.20;11.20;;;;;;;7.60;76.76;99399.78;104305;1104;77666;-67
2021/05/07 02:25:51;;;;;;;12.70;9.90;;;;;;;7.65;76.67;99396.50;104325;1104;78294;-67
2021/05/07 02:27:58;;;;;;;12.40;10.00;;;;;;;7.71;76.72;99395.72;104244;1104;77378;-67
2021/05/07 02:30:04;;;;;;;13.60;10.20;;;;;;;7.70;76.54;99386.83;104346;1104;77121;-67
2021/05/07 02:32:09;;;;;;;14.70;10.20;;;;;;;7.71;76.75;99385.81;104291;1098;78373;-68
2021/05/07 02:34:16;;;;;;;17.30;11.80;;;;;;;7.73;76.45;99389.13;104286;1105;77667;-70
2021/05/07 02:36:21;;;;;;;14.70;11.00;;;;;;;7.75;76.61;99386.22;104289;1104;79074;-69
2021/05/07 02:38:31;;;;;;;15.70;12.10;;;;;;;7.70;76.59;99385.98;104355;1104;78191;-68
2021/05/07 02:40:39;;;;;;;12.60;10.40;;;;;;;7.66;76.71;99384.73;104297;1104;77190;-70
2021/05/07 02:42:44;;;;;;;17.00;11.90;;;;;;;7.64;76.36;99376.02;104323;1104;77146;-68
2021/05/07 02:44:49;;;;;;;14.70;10.20;;;;;;;7.61;76.89;99384.46;104306;1104;77377;-67
2021/05/07 02:47:03;;;;;;;16.10;10.10;;;;;;;7.53;76.68;99380.06;104289;1104;76904;-67
2021/05/07 02:49:07;;;;;;;;;;;;;;;7.51;76.73;99381.29;104330;1104;78042;-67
2021/05/07 02:51:12;;;;;;;12.50;9.90;;;;;;;7.50;76.74;99380.45;104300;1104;79378;-66
2021/05/07 02:53:17;;;;;;;13.10;10.40;;;;;;;7.50;77.08;99364.33;104298;1104;77108;-66
2021/05/07 02:55:25;;;;;;;15.60;10.80;;;;;;;7.56;76.91;99366.24;104288;1104;78974;-66
2021/05/07 02:57:30;;;;;;;14.10;11.00;;;;;;;7.62;76.91;99368.16;104292;1098;78352;-67
2021/05/07 02:59:36;;;;;;;14.90;12.90;;;;;;;7.64;76.73;99370.63;104304;1105;77172;-68
2021/05/07 03:01:41;;;;;;;14.90;12.00;;;;;;;7.66;76.75;99355.97;104313;1104;78415;-67
2021/05/07 03:03:46;;;;;;;18.70;12.60;;;;;;;7.70;76.75;99351.88;104318;1104;79372;-67
2021/05/07 03:05:51;;;;;;;14.80;12.00;;;;;;;7.76;76.77;99354.80;104332;1104;77762;-67
2021/05/07 03:07:56;;;;;;;16.70;12.30;;;;;;;7.78;76.62;99350.89;104296;1104;78144;-68
2021/05/07 03:10:02;;;;;;;16.80;12.20;;;;;;;7.78;76.78;99344.67;104337;1104;79182;-68
2021/05/07 03:12:08;;;;;;;15.20;12.60;;;;;;;7.77;76.41;99340.34;104309;1104;77347;-69
2021/05/07 03:14:14;;;;;;;15.50;12.40;;;;;;;7.79;77.01;99335.59;104334;1099;78771;-69
2021/05/07 03:16:21;;;;;;;19.40;12.40;;;;;;;7.66;76.77;99334.47;104319;1104;77383;-68
2021/05/07 03:18:27;;;;;;;15.90;11.40;;;;;;;7.66;76.54;99331.78;104327;1099;77011;-67
2021/05/07 03:20:32;;;;;;;16.50;12.30;;;;;;;7.64;76.67;99333.00;104311;1104;78539;-68
2021/05/07 03:22:37;;;;;;;16.90;12.20;;;;;;;7.71;76.56;99325.83;104267;1104;78058;-67
2021/05/07 03:24:45;;;;;;;17.10;12.10;;;;;;;7.78;76.57;99328.55;104281;1104;79654;-67
2021/05/07 03:26:54;;;;;;;16.70;11.80;;;;;;;7.79;76.61;99331.05;104319;1098;79818;-67
2021/05/07 03:29:00;;;;;;;16.50;11.60;;;;;;;7.81;76.59;99322.77;104292;1104;77943;-67
2021/05/07 03:31:05;;;;;;;13.70;11.70;;;;;;;7.83;76.45;99331.50;104294;1104;77793;-68
2021/05/07 03:33:10;;;;;;;15.00;11.50;;;;;;;7.87;76.31;99325.52;104312;1105;77845;-65
2021/05/07 03:35:15;;;;;;;15.30;11.30;;;;;;;7.83;76.45;99324.23;104265;1104;78751;-68
2021/05/07 03:37:20;;;;;;;14.70;11.70;;;;;;;7.89;76.67;99323.45;104286;1104;77707;-68
2021/05/07 03:39:29;;;;;;;15.00;11.80;;;;;;;7.93;76.49;99315.83;104306;1104;78364;-66
2021/05/07 03:41:34;;;;;;;17.50;12.00;;;;;;;7.91;76.25;99323.27;104282;1104;79053;-68
2021/05/07 03:43:39;;;;;;;17.40;11.70;;;;;;;7.92;76.34;99317.67;104323;1104;77733;-68
2021/05/07 03:45:44;;;;;;;16.60;10.60;;;;;;;7.95;76.17;99311.91;104289;1104;78277;-68
2021/05/07 03:47:49;;;;;;;16.20;11.40;;;;;;;7.91;76.41;99323.27;104275;1104;77833;-67
2021/05/07 03:49:54;;;;;;;14.90;11.00;;;;;;;7.90;76.43;99326.97;104324;1104;77893;-67
2021/05/07 03:52:01;;;;;;;16.10;12.00;;;;;;;7.87;76.37;99325.52;104352;1104;78651;-68
2021/05/07 03:54:07;;;;;;;15.90;11.80;;;;;;;7.88;76.43;99323.66;104319;1104;77649;-69
2021/05/07 03:56:12;;;;;;;15.70;12.40;;;;;;;7.94;76.18;99318.30;104332;1104;78437;-69
2021/05/07 03:58:18;;;;;;;15.60;11.60;;;;;;;7.96;76.17;99315.43;104360;1098;78870;-68
2021/05/07 04:00:25;;;;;;;16.00;11.90;;;;;;;8.00;76.39;99316.67;104335;1104;78915;-69
2021/05/07 04:02:33;;;;;;;13.80;11.00;;;;;;;7.99;76.03;99320.41;104356;1104;78060;-69
2021/05/07 04:04:39;;;;;;;13.80;11.80;;;;;;;7.93;76.32;99322.04;104347;1104;77788;-69
2021/05/07 04:06:45;;;;;;;15.20;11.50;;;;;;;7.96;75.98;99321.64;104352;1104;77283;-66
2021/05/07 04:09:00;;;;;;;15.30;11.40;;;;;;;7.87;76.36;99321.99;104359;1104;77138;-68
2021/05/07 04:11:09;;;;;;;16.50;10.90;;;;;;;7.90;76.14;99326.97;104346;1104;78350;-68
2021/05/07 04:15:38;;;;;;;16.90;11.00;;;;;;;7.96;76.25;99315.43;104322;1104;77974;-70
2021/05/07 04:17:43;;;;;;;13.50;10.50;;;;;;;7.89;76.03;99325.30;104343;1104;78724;-70
2021/05/07 04:19:48;;;;;;;16.20;11.00;;;;;;;7.80;76.10;99327.31;104332;1104;77945;-69
2021/05/07 04:21:57;;;;;;;13.30;10.20;;;;;;;7.78;76.03;99323.17;104391;1104;77472;-69
2021/05/07 04:24:02;;;;;;;11.70;9.90;;;;;;;7.77;76.54;99327.73;104366;1104;78216;-69
2021/05/07 04:26:07;;;;;;;14.40;10.70;;;;;;;7.70;76.27;99326.84;104351;1105;77013;-69
2021/05/07 04:28:13;;;;;;;13.60;10.60;;;;;;;7.72;76.48;99332.84;104375;1104;77062;-68
2021/05/07 04:30:20;;;;;;;12.10;9.10;;;;;;;7.66;76.90;99323.72;104346;1104;78106;-69
2021/05/07 04:32:25;;;;;;;11.30;8.90;;;;;;;7.67;76.85;99321.86;104370;1097;78321;-68
2021/05/07 04:34:30;;;;;;;11.60;9.20;;;;;;;7.73;76.72;99321.92;104370;1104;77600;-70
2021/05/07 04:36:35;;;;;;;13.90;9.40;;;;;;;7.83;76.68;99328.81;104342;1104;78368;-68
2021/05/07 04:38:40;;;;;;;11.50;9.30;;;;;;;7.85;76.53;99321.37;104361;1104;77299;-69
2021/05/07 04:40:45;;;;;;;12.80;9.40;;;;;;;7.77;76.70;99321.53;104389;1105;77830;-69
2021/05/07 04:42:50;;;;;;;14.10;10.50;;;;;;;7.75;76.97;99319.02;104390;1104;78502;-70
2021/05/07 04:44:58;;;;;;;14.30;10.00;;;;;;;7.78;76.78;99307.88;104356;1104;79668;-70
2021/05/07 04:47:06;;;;;;;15.00;9.60;;;;;;;7.86;77.00;99321.16;104350;1104;77112;-69
2021/05/07 04:49:11;;;;;;;14.20;10.30;;;;;;;7.89;76.99;99309.17;104335;1104;78152;-69
2021/05/07 04:51:16;;;;;;;13.60;10.30;;;;;;;7.87;76.93;99317.45;104348;1104;79041;-69
2021/05/07 04:53:21;;;;;;;12.00;9.70;;;;;;;7.88;76.74;99307.53;104395;1099;78256;-67
2021/05/07 04:55:26;;;;;;;15.70;11.70;;;;;;;7.90;76.89;99311.68;104345;1104;79822;-67
2021/05/07 04:57:31;;;;;;;13.30;9.50;;;;;;;7.94;77.08;99322.88;104408;1099;79371;-67
2021/05/07 04:59:36;;;;;;;14.30;10.30;;;;;;;7.86;77.13;99314.94;104368;1104;78156;-68
2021/05/07 05:01:41;;;;;;;12.80;9.90;;;;;;;7.83;77.31;99318.05;104360;1104;78785;-68
2021/05/07 05:03:46;;;;;;;14.20;10.60;;;;;;;7.84;77.29;99312.47;104351;1104;78678;-67
2021/05/07 05:05:51;;;;;;;15.80;11.70;;;;;;;7.84;77.30;99314.31;104373;1104;77589;-67
2021/05/07 05:07:56;;;;;;;14.00;11.70;;;;;;;7.83;77.46;99316.17;104366;1104;77500;-68
2021/05/07 05:10:02;;;;;;;17.50;11.30;;;;;;;7.87;77.26;99317.45;104328;1104;78353;-67
2021/05/07 05:12:10;;;;;;;12.90;10.20;;;;;;;7.82;77.67;99319.91;104347;1104;79090;-67
2021/05/07 05:14:15;;;;;;;14.60;10.80;;;;;;;7.87;77.47;99324.68;104339;1104;78157;-68
2021/05/07 05:16:20;;;;;;;14.50;10.80;;;;;;;7.94;77.44;99326.37;104376;1103;77811;-67
2021/05/07 05:18:33;;;;;;;17.30;11.20;;;;;;;7.93;77.70;99315.83;104406;1104;78186;-67
2021/05/07 05:20:38;;;;;;;15.90;11.20;;;;;;;7.91;77.84;99312.52;104333;1104;78234;-68
2021/05/07 05:22:43;;;;;;;15.40;11.10;;;;;;;7.86;77.98;99318.47;104392;1104;77898;-68
2021/05/07 05:24:48;;;;;;;13.50;10.90;;;;;;;7.88;77.83;99323.66;104354;1104;78189;-67
2021/05/07 05:26:54;;;;;;;15.50;10.60;;;;;;;7.91;77.72;99312.52;104350;1104;78635;-67
2021/05/07 05:28:59;;;;;;;13.20;10.90;;;;;;;7.94;77.61;99309.43;104362;1098;78556;-70
2021/05/07 05:31:04;;;;;;;13.00;11.60;;;;;;;7.90;77.94;99310.84;104365;1104;77453;-68
2021/05/07 05:33:09;;;;;;;17.60;11.90;;;;;;;7.77;77.92;99308.92;104359;1104;79273;-67
2021/05/07 05:35:15;;;;;;;15.70;13.00;;;;;;;7.81;77.84;99309.33;104369;1104;79400;-67
2021/05/07 05:37:21;;;;;;;17.80;12.50;;;;;;;7.78;78.41;99309.73;104370;1104;79244;-68
2021/05/07 05:39:26;;;;;;;16.00;12.30;;;;;;;7.77;78.17;99311.61;104404;1103;78932;-67
2021/05/07 05:41:31;;;;;;;15.50;12.90;;;;;;;7.77;78.32;99313.46;104358;1105;76944;-67
2021/05/07 05:43:39;;;;;;;15.80;11.40;;;;;;;7.76;78.39;99304.56;104350;1104;78849;-67
2021/05/07 05:45:44;;;;;;;16.00;12.20;;;;;;;7.71;78.31;99302.48;104376;1104;79022;-67
2021/05/07 05:48:07;;;;;;;14.60;11.50;;;;;;;7.76;78.33;99309.94;104357;1097;79476;-67
2021/05/07 05:50:15;;;;;;;14.10;11.90;;;;;;;7.76;78.37;99303.72;104365;1104;78561;-67
2021/05/07 05:52:20;;;;;;;13.10;10.80;;;;;;;7.83;78.51;99309.98;104355;1104;77363;-71
2021/05/07 05:54:28;;;;;;;15.50;11.60;;;;;;;7.98;78.37;99303.44;104379;1098;76871;-70
2021/05/07 05:56:34;;;;;;;15.00;11.50;;;;;;;8.05;78.61;99303.45;104352;1105;77861;-71
2021/05/07 05:58:39;;;;;;;13.50;10.80;;;;;;;8.11;78.47;99305.35;104362;1104;78796;-71
2021/05/07 06:00:44;;;;;;;13.60;11.00;;;;;;;8.13;78.60;99304.12;104337;1104;78612;-72
2021/05/07 06:02:49;;;;;;;16.70;11.70;;;;;;;8.18;78.33;99303.54;104337;1098;77016;-70
2021/05/07 06:04:57;;;;;;;12.40;10.80;;;;;;;8.26;78.49;99312.27;104341;1105;77445;-70
2021/05/07 06:07:04;;;;;;;15.50;11.80;;;;;;;8.35;78.63;99310.23;104350;1104;77362;-67
2021/05/07 06:09:13;;;;;;;13.40;11.50;;;;;;;8.40;78.23;99305.11;104332;1104;77210;-66
2021/05/07 06:11:19;;;;;;;13.90;11.50;;;;;;;8.50;78.67;99304.70;104357;1098;78037;-67
2021/05/07 06:13:24;;;;;;;13.50;11.10;;;;;;;8.47;78.65;99307.80;104318;1104;78194;-66
2021/05/07 06:15:29;;;;;;;17.10;11.60;;;;;;;8.38;78.37;99307.14;104367;1099;77975;-66
2021/05/07 06:17:37;;;;;;;14.40;11.60;;;;;;;8.38;78.63;99301.77;104329;1104;78535;-66
2021/05/07 06:19:42;;;;;;;12.80;10.60;;;;;;;8.32;78.96;99299.91;104342;1104;78390;-66
2021/05/07 06:21:47;;;;;;;13.80;11.10;;;;;;;8.33;78.83;99301.55;104365;1104;78778;-66
2021/05/07 06:23:56;;;;;;;13.50;11.10;;;;;;;8.31;78.42;99306.30;104322;1104;76658;-68
2021/05/07 06:26:04;;;;;;;11.60;10.30;;;;;;;8.35;78.63;99312.92;104351;1098;78380;-68
2021/05/07 06:28:09;;;;;;;14.40;11.40;;;;;;;8.39;78.42;99310.67;104333;1104;78398;-70
2021/05/07 06:30:17;;;;;;;12.70;10.40;;;;;;;8.39;78.67;99306.13;104343;1105;78592;-70
2021/05/07 06:32:25;;;;;;;12.20;10.20;;;;;;;8.34;78.41;99307.76;104406;1099;78300;-70
2021/05/07 06:34:33;;;;;;;13.40;10.90;;;;;;;8.29;78.44;99316.45;104327;1104;78395;-70
2021/05/07 06:36:39;;;;;;;15.20;10.60;;;;;;;8.21;78.53;99312.02;104348;1097;79678;-70
2021/05/07 06:38:44;;;;;;;12.00;9.90;;;;;;;8.16;78.72;99305.58;104347;1104;79757;-67
2021/05/07 06:40:52;;;;;;;19.70;14.10;;;;;;;8.13;78.59;99301.43;104356;1098;79666;-67
2021/05/07 06:42:57;;;;;;;14.90;11.60;;;;;;;8.12;78.97;99312.41;104343;1099;78413;-70
2021/05/07 06:45:04;;;;;;;12.60;10.60;;;;;;;8.03;78.81;99302.83;104424;1087;80240;-66
2021/05/07 06:47:12;;;;;;;12.60;9.90;;;;;;;7.99;78.73;99301.59;104329;1105;77552;-68
2021/05/07 06:49:18;;;;;;;11.40;9.00;;;;;;;7.85;78.65;99303.38;104280;1104;77488;-70
2021/05/07 06:51:29;;;;;;;9.70;8.00;;;;;;;7.79;79.17;99311.39;104375;1101;76731;-71
2021/05/07 06:53:34;;;;;;;10.70;7.30;;;;;;;7.70;78.82;99310.72;104295;1104;79347;-71
2021/05/07 06:55:43;;;;;;;10.40;8.30;;;;;;;7.67;78.57;99311.95;104323;1104;79041;-71
2021/05/07 06:57:50;;;;;;;12.10;8.00;;;;;;;7.63;78.65;99313.39;104301;1104;77482;-71
2021/05/07 06:59:58;;;;;;;10.40;8.20;;;;;;;7.55;78.97;99316.20;104304;1097;78963;-70
2021/05/07 07:02:03;;;;;;;11.10;8.50;;;;;;;7.51;78.84;99314.95;104482;1087;78650;-67
2021/05/07 07:04:11;;;;;;;9.60;8.20;;;;;;;7.49;78.86;99314.32;104418;1087;78026;-67
2021/05/07 07:06:16;;;;;;;11.40;7.30;;;;;;;7.51;79.18;99304.20;104278;1104;78381;-67
2021/05/07 07:08:22;;;;;;;8.20;6.60;;;;;;;7.47;79.19;99313.66;104308;1104;78438;-66
2021/05/07 07:10:27;;;;;;;8.30;6.70;;;;;;;7.48;79.46;99315.34;104282;1104;78984;-67
2021/05/07 07:12:32;;;;;;;9.20;7.70;;;;;;;7.55;79.24;99302.77;104301;1104;79226;-68
2021/05/07 07:14:38;;;;;;;9.90;7.80;;;;;;;7.53;79.12;99314.73;104308;1104;78514;-70
2021/05/07 07:16:44;;;;;;;8.80;7.20;;;;;;;7.52;79.25;99313.09;104304;1104;78271;-68
2021/05/07 07:18:52;;;;;;;9.90;7.60;;;;;;;7.49;79.24;99308.11;104296;1099;77470;-66
2021/05/07 07:20:57;;;;;;;9.30;7.80;;;;;;;7.51;79.14;99312.26;104270;1104;78613;-68
2021/05/07 07:23:04;;;;;;;11.30;8.70;;;;;;;7.56;79.20;99319.72;104404;1087;77642;-67
2021/05/07 07:25:15;;;;;;;10.70;9.00;;;;;;;7.57;79.32;99310.64;104376;1099;78909;-68
2021/05/07 07:27:20;;;;;;;9.80;7.30;;;;;;;7.55;79.00;99313.51;104368;1104;77262;-67
2021/05/07 07:29:28;;;;;;;9.60;8.50;;;;;;;7.59;79.00;99319.33;104351;1104;77126;-68
2021/05/07 07:31:33;;;;;;;8.70;7.20;;;;;;;7.62;78.93;99313.56;104308;1104;78569;-67
2021/05/07 07:33:39;;;;;;;10.10;7.30;;;;;;;7.65;79.16;99313.17;104342;1099;79577;-68
2021/05/07 07:35:44;;;;;;;7.50;6.70;;;;;;;7.72;79.23;99320.25;104334;1104;77983;-67
2021/05/07 07:37:49;;;;;;;8.00;6.80;;;;;;;7.76;79.33;99326.06;104292;1104;77575;-67
2021/05/07 07:39:54;;;;;;;8.50;6.80;;;;;;;7.79;79.29;99324.84;104327;1104;77169;-68
2021/05/07 07:42:00;;;;;;;7.80;6.00;;;;;;;7.86;78.93;99321.16;104345;1104;79273;-67
2021/05/07 07:44:09;;;;;;;6.30;5.40;;;;;;;7.89;79.17;99323.45;104356;1104;78640;-68
2021/05/07 07:46:23;;;;;;;5.30;4.10;;;;;;;7.94;78.79;99331.75;104384;1097;76982;-67
2021/05/07 07:48:29;;;;;;;5.20;4.10;;;;;;;7.94;79.14;99336.32;104355;1104;78630;-68
2021/05/07 07:50:35;;;;;;;5.10;3.30;;;;;;;7.94;78.79;99339.81;104311;1098;77552;-69
2021/05/07 07:52:43;;;;;;;3.50;2.90;;;;;;;7.88;78.74;99337.11;104319;1104;78644;-69
2021/05/07 07:54:51;;;;;;;4.60;3.40;;;;;;;7.86;78.47;99344.52;104326;1104;77621;-70
2021/05/07 07:56:57;;;;;;;4.10;3.10;;;;;;;7.86;78.72;99336.45;104325;1104;78135;-67
2021/05/07 07:59:02;;;;;;;4.80;3.50;;;;;;;7.88;78.38;99346.01;104298;1099;77704;-67
2021/05/07 08:01:07;;;;;;;4.50;3.20;;;;;;;7.88;78.25;99339.80;104332;1104;79620;-66
2021/05/07 08:03:12;;;;;;;5.30;2.70;;;;;;;7.91;78.44;99336.72;104279;1104;77640;-68
2021/05/07 08:05:18;;;;;;;4.90;3.10;;;;;;;7.91;78.20;99348.27;104309;1099;77739;-68
2021/05/07 08:07:23;;;;;;;5.00;3.60;;;;;;;7.98;78.29;99348.33;104335;1098;78080;-69
2021/05/07 08:09:29;;;;;;;6.40;4.20;;;;;;;8.03;78.46;99348.55;104281;1104;77702;-69
2021/05/07 08:11:34;;;;;;;6.30;4.30;;;;;;;8.07;78.46;99349.83;104300;1104;79044;-67
2021/05/07 08:13:39;;;;;;;4.80;3.70;;;;;;;8.11;78.09;99353.77;104316;1104;79580;-69
2021/05/07 08:15:44;;;;;;;4.70;3.60;;;;;;;8.11;78.07;99356.45;104273;1104;78301;-68
2021/05/07 08:17:49;;;;;;;8.50;5.10;;;;;;;8.18;77.87;99358.17;104338;1104;77702;-68
2021/05/07 08:19:57;;;;;;;5.30;4.30;;;;;;;8.17;77.91;99355.67;104317;1098;76877;-68
2021/05/07 08:22:03;;;;;;;5.00;4.50;;;;;;;8.15;77.59;99361.27;104329;1104;78300;-68
2021/05/07 08:24:11;;;;;;;7.20;4.00;;;;;;;8.10;77.83;99361.00;104310;1104;79210;-67
2021/05/07 08:26:16;;;;;;;4.20;3.30;;;;;;;8.12;78.01;99368.89;104351;1099;78852;-72
2021/05/07 08:28:21;;;;;;;4.00;2.70;;;;;;;8.04;77.77;99369.05;104311;1104;78912;-63
2021/05/07 08:30:27;;;;;;;3.90;2.80;;;;;;;8.02;77.91;99376.50;104274;1099;80132;-67
2021/05/07 08:32:33;;;;;;;3.10;2.30;;;;;;;8.04;77.66;99383.34;104363;1098;78436;-67
2021/05/07 08:34:41;;;;;;;3.00;2.70;;;;;;;8.05;77.24;99381.45;104355;1104;78779;-67
2021/05/07 08:36:47;;;;;;;2.50;1.90;;;;;;;7.96;77.50;99378.12;104295;1104;79583;-67
2021/05/07 08:38:53;;;;;;;2.50;1.90;;;;;;;7.98;77.23;99372.53;104302;1104;78249;-67
2021/05/07 08:41:01;;;;;;;4.70;2.00;;;;;;;8.00;77.59;99373.16;104305;1104;78726;-67
2021/05/07 08:43:13;;;;;;;2.20;1.80;;;;;;;8.14;77.22;99373.04;104308;1104;78667;-67
2021/05/07 08:45:18;;;;;;;2.70;1.90;;;;;;;8.21;77.00;99365.02;104322;1104;78060;-67
2021/05/07 08:47:32;;;;;;;3.00;1.70;;;;;;;8.28;77.04;99379.34;104293;1104;78538;-68
2021/05/07 08:49:37;;;;;;;;;;;;;;;8.40;76.86;99377.77;104371;1099;78440;-70
2021/05/07 08:51:44;;;;;;;;;;;;;;;8.49;77.14;99381.92;104321;1104;78225;-69
2021/05/07 08:53:49;;;;;;;3.20;1.80;;;;;;;8.50;76.84;99383.59;104270;1100;77797;-68
2021/05/07 08:55:57;;;;;;;3.20;1.80;;;;;;;8.48;76.38;99380.28;104304;1099;78407;-68
2021/05/07 08:58:02;;;;;;;2.90;2.10;;;;;;;8.59;76.41;99387.78;104320;1098;78899;-69
2021/05/07 09:00:13;;;;;;;3.20;2.00;;;;;;;8.67;76.18;99382.22;104277;1104;78940;-70
2021/05/07 09:02:30;;;;;;;2.20;1.50;;;;;;;8.71;76.25;99390.70;104297;1104;76808;-69
2021/05/07 09:04:48;;;;;;;2.00;1.80;;;;;;;8.73;75.99;99388.66;104296;1104;78444;-66
2021/05/07 09:06:54;;;;;;;2.90;1.90;;;;;;;8.74;75.69;99385.75;104301;1104;77565;-66
2021/05/07 09:09:00;;;;;;;2.90;1.70;;;;;;;8.70;75.67;99394.44;104332;1104;78134;-70
2021/05/07 09:11:05;;;;;;;3.40;1.70;;;;;;;8.64;75.65;99393.39;104266;1104;77973;-69
2021/05/07 09:13:13;;;;;;;4.20;1.90;;;;;;;8.66;75.50;99396.70;104280;1098;78517;-70
2021/05/07 09:15:22;;;;;;;3.70;1.80;;;;;;;8.75;75.24;99403.58;104307;1104;77322;-68
2021/05/07 09:17:30;;;;;;;3.50;1.70;;;;;;;8.73;75.19;99400.27;104305;1099;78909;-70
2021/05/07 09:19:35;;;;;;;2.90;2.00;;;;;;;8.83;75.34;99403.39;104342;1099;78898;-66
2021/05/07 09:21:44;;;;;;;3.00;2.50;;;;;;;8.92;75.43;99397.83;104319;1104;79445;-68
2021/05/07 09:23:51;;;;;;;3.10;2.20;;;;;;;8.96;75.42;99405.28;104303;1098;78939;-69
2021/05/07 09:26:02;;;;;;;2.70;1.80;;;;;;;9.03;75.24;99416.92;104335;1104;79068;-69
2021/05/07 09:28:16;;;;;;;3.60;1.90;;;;;;;9.11;75.00;99426.67;104276;1104;78175;-70
2021/05/07 09:30:43;;;;;;;4.60;2.20;;;;;;;9.20;75.28;99422.77;104287;1104;79002;-69
2021/05/07 09:33:00;;;;;;;2.90;2.00;;;;;;;9.29;74.77;99424.22;105030;1088;77327;-71
2021/05/07 09:35:41;;;;;;;2.90;2.00;;;;;;;9.27;75.05;99419.05;106014;1098;76957;-70
2021/05/07 09:38:20;;;;;;;2.90;2.10;;;;;;;9.41;74.71;99422.59;105995;1098;77686;-71
2021/05/07 09:40:26;;;;;;;3.00;1.90;;;;;;;9.48;74.33;99424.24;105926;1090;79276;-70
2021/05/07 09:42:32;;;;;;;2.90;2.00;;;;;;;9.48;74.14;99423.41;106033;1104;78915;-68
2021/05/07 09:44:38;;;;;;;5.10;2.40;;;;;;;9.71;74.18;99421.16;106067;1104;78706;-70
2021/05/07 09:46:43;;;;;;;3.70;2.70;;;;;;;9.86;74.08;99419.05;106044;1104;78309;-70
2021/05/07 09:48:48;;;;;;;5.00;2.50;;;;;;;9.93;73.70;99425.30;106026;1104;78938;-69
2021/05/07 09:51:01;;;;;;;3.80;2.50;;;;;;;9.82;73.46;99415.13;106027;1105;78354;-69
2021/05/07 09:53:20;;;;;;;2.90;2.00;;;;;;;9.81;73.40;99432.34;106042;1105;76773;-67